createdAt,value
2023-04-09T00:00:50.603Z,4.59
2023-04-09T00:03:18.816Z,4.56
2023-04-09T00:05:46.903Z,4.52
2023-04-09T00:08:14.542Z,4.47
2023-04-09T00:10:42.281Z,4.42
2023-04-09T00:13:10.077Z,4.35
2023-04-09T00:15:37.797Z,4.31
2023-04-09T00:18:05.740Z,4.25
2023-04-09T00:20:33.492Z,4.20
2023-04-09T00:23:01.510Z,4.15
2023-04-09T00:25:29.659Z,4.12
2023-04-09T00:27:57.698Z,4.08
2023-04-09T00:30:25.429Z,4.05
2023-04-09T00:32:53.136Z,4.03
2023-04-09T00:35:20.852Z,4.01
2023-04-09T00:37:48.410Z,3.98
2023-04-09T00:40:16.049Z,3.95
2023-04-09T00:42:43.780Z,3.93
2023-04-09T00:45:11.392Z,3.91
2023-04-09T00:47:39.540Z,3.88
2023-04-09T00:50:07.233Z,3.86
2023-04-09T00:52:35.214Z,3.83
2023-04-09T00:55:03.286Z,3.80
2023-04-09T00:57:31.032Z,3.77
2023-04-09T00:59:58.643Z,3.77
2023-04-09T01:02:26.345Z,3.74
2023-04-09T01:04:54.397Z,3.71
2023-04-09T01:07:22.078Z,3.68
2023-04-09T01:09:50.121Z,3.64
2023-04-09T01:12:17.785Z,3.62
2023-04-09T01:14:45.444Z,3.59
2023-04-09T01:17:13.389Z,3.58
2023-04-09T01:19:41.494Z,3.56
2023-04-09T01:22:09.108Z,3.55
2023-04-09T01:24:36.723Z,3.55
2023-04-09T01:27:04.356Z,3.54
2023-04-09T01:29:32.339Z,3.53
2023-04-09T01:31:59.904Z,3.51
2023-04-09T01:34:27.560Z,3.50
2023-04-09T01:36:55.226Z,3.48
2023-04-09T01:39:22.833Z,3.45
2023-04-09T01:41:50.766Z,3.41
2023-04-09T01:44:18.607Z,3.38
2023-04-09T01:46:46.211Z,3.36
2023-04-09T01:49:13.873Z,3.34
2023-04-09T01:51:41.488Z,3.31
2023-04-09T01:54:09.764Z,3.31
2023-04-09T01:56:37.479Z,3.32
2023-04-09T01:59:05.069Z,3.34
2023-04-09T02:01:32.742Z,3.36
2023-04-09T02:04:00.553Z,3.40
2023-04-09T02:06:28.760Z,3.40
2023-04-09T02:08:56.347Z,3.37
2023-04-09T02:11:23.973Z,3.35
2023-04-09T02:13:51.610Z,3.33
2023-04-09T02:16:19.855Z,3.33
2023-04-09T02:18:47.978Z,3.33
2023-04-09T02:21:15.583Z,3.32
2023-04-09T02:23:58.460Z,3.33
2023-04-09T02:26:26.072Z,3.35
2023-04-09T02:28:54.103Z,3.35
2023-04-09T02:31:22.231Z,3.36
2023-04-09T02:33:49.844Z,3.38
2023-04-09T02:36:17.436Z,3.38
2023-04-09T02:38:45.080Z,3.37
2023-04-09T02:41:12.716Z,3.35
2023-04-09T02:43:40.333Z,3.32
2023-04-09T02:46:07.979Z,3.26
2023-04-09T02:48:35.608Z,3.19
2023-04-09T02:51:03.239Z,3.11
2023-04-09T02:53:30.851Z,3.03
2023-04-09T02:55:58.441Z,2.94
2023-04-09T02:58:26.434Z,2.86
2023-04-09T03:00:54.031Z,2.79
2023-04-09T03:03:21.683Z,2.72
2023-04-09T03:05:49.739Z,2.67
2023-04-09T03:08:17.375Z,2.60
2023-04-09T03:10:44.932Z,2.54
2023-04-09T03:13:12.614Z,2.48
2023-04-09T03:15:40.300Z,2.42
2023-04-09T03:18:07.963Z,2.39
2023-04-09T03:20:36.781Z,2.35
2023-04-09T03:23:04.385Z,2.33
2023-04-09T03:25:31.929Z,2.32
2023-04-09T03:27:59.730Z,2.33
2023-04-09T03:30:27.754Z,2.33
2023-04-09T03:32:55.409Z,2.33
2023-04-09T03:35:23.067Z,2.34
2023-04-09T03:37:50.725Z,2.36
2023-04-09T03:40:18.313Z,2.36
2023-04-09T03:42:46.765Z,2.34
2023-04-09T03:45:14.491Z,2.33
2023-04-09T03:47:42.184Z,2.32
2023-04-09T03:50:09.837Z,2.29
2023-04-09T03:52:37.435Z,2.26
2023-04-09T03:55:05.700Z,2.23
2023-04-09T03:57:33.430Z,2.19
2023-04-09T04:00:01.107Z,2.14
2023-04-09T04:02:31.450Z,2.12
2023-04-09T04:04:59.538Z,2.08
2023-04-09T04:07:27.759Z,2.05
2023-04-09T04:09:55.566Z,2.00
2023-04-09T04:12:23.173Z,1.97
2023-04-09T04:14:50.759Z,1.94
2023-04-09T04:17:18.336Z,1.95
2023-04-09T04:19:46.267Z,1.96
2023-04-09T04:22:14.083Z,1.96
2023-04-09T04:24:41.690Z,1.97
2023-04-09T04:27:09.648Z,1.97
2023-04-09T04:29:37.761Z,1.96
2023-04-09T04:32:05.315Z,1.93
2023-04-09T04:34:32.900Z,1.89
2023-04-09T04:37:00.488Z,1.86
2023-04-09T04:39:28.099Z,1.86
2023-04-09T04:41:55.811Z,1.84
2023-04-09T04:44:23.764Z,1.86
2023-04-09T04:46:51.608Z,1.89
2023-04-09T04:49:19.584Z,1.85
2023-04-09T04:51:47.177Z,1.83
2023-04-09T04:54:14.757Z,1.82
2023-04-09T04:56:42.694Z,1.79
2023-04-09T04:59:10.474Z,1.76
2023-04-09T05:01:38.238Z,1.76
2023-04-09T05:04:05.921Z,1.77
2023-04-09T05:06:33.723Z,1.76
2023-04-09T05:09:01.992Z,1.77
2023-04-09T05:11:30.837Z,1.77
2023-04-09T05:13:58.483Z,1.78
2023-04-09T05:16:26.103Z,1.81
2023-04-09T05:18:54.075Z,1.87
2023-04-09T05:21:22.410Z,1.94
2023-04-09T05:23:50.026Z,2.00
2023-04-09T05:26:17.575Z,2.03
2023-04-09T05:28:45.208Z,2.05
2023-04-09T05:31:13.493Z,2.07
2023-04-09T05:33:41.578Z,2.11
2023-04-09T05:36:09.452Z,2.15
2023-04-09T05:38:37.040Z,2.19
2023-04-09T05:41:04.608Z,2.25
2023-04-09T05:43:32.218Z,2.32
2023-04-09T05:46:00.239Z,2.41
2023-04-09T05:48:28.042Z,2.51
2023-04-09T05:50:56.057Z,2.62
2023-04-09T05:53:23.738Z,2.71
2023-04-09T05:55:51.784Z,2.81
2023-04-09T05:58:20.364Z,2.93
2023-04-09T06:00:47.982Z,3.05
2023-04-09T06:03:15.714Z,3.19
2023-04-09T06:05:43.477Z,3.31
2023-04-09T06:08:11.219Z,3.43
2023-04-09T06:10:41.034Z,3.56
2023-04-09T06:13:09.030Z,3.67
2023-04-09T06:15:36.613Z,3.83
2023-04-09T06:18:04.486Z,3.96
2023-04-09T06:20:32.139Z,4.07
2023-04-09T06:23:00.109Z,4.17
2023-04-09T06:25:27.740Z,4.30
2023-04-09T06:27:55.382Z,4.40
2023-04-09T06:30:23.171Z,4.50
2023-04-09T06:32:55.024Z,4.61
2023-04-09T06:35:23.293Z,4.77
2023-04-09T06:37:51.082Z,4.96
2023-04-09T06:40:20.685Z,5.16
2023-04-09T06:42:49.980Z,5.34
2023-04-09T06:45:17.572Z,5.53
2023-04-09T06:47:45.199Z,5.69
2023-04-09T06:50:12.999Z,5.86
2023-04-09T06:52:40.580Z,6.02
2023-04-09T06:55:08.172Z,6.16
2023-04-09T06:57:35.984Z,6.28
2023-04-09T07:00:04.095Z,6.42
2023-04-09T07:02:31.858Z,6.56
2023-04-09T07:05:01.098Z,6.70
2023-04-09T07:07:28.692Z,6.85
2023-04-09T07:09:56.376Z,7.02
2023-04-09T07:12:24.399Z,7.15
2023-04-09T07:14:52.296Z,7.31
2023-04-09T07:17:19.957Z,7.46
2023-04-09T07:19:47.641Z,7.61
2023-04-09T07:22:15.556Z,7.77
2023-04-09T07:24:43.877Z,7.89
2023-04-09T07:27:11.519Z,8.04
2023-04-09T07:29:39.162Z,8.18
2023-04-09T07:32:06.742Z,8.35
2023-04-09T07:34:34.376Z,8.51
2023-04-09T07:37:02.331Z,8.67
2023-04-09T07:39:29.993Z,8.83
2023-04-09T07:41:57.757Z,9.01
2023-04-09T07:44:25.703Z,9.17
2023-04-09T07:46:53.832Z,9.33
2023-04-09T07:49:22.063Z,9.51
2023-04-09T07:51:49.722Z,9.68
2023-04-09T07:54:17.311Z,9.84
2023-04-09T07:56:44.969Z,10.03
2023-04-09T07:59:12.653Z,10.20
2023-04-09T08:01:40.729Z,10.38
2023-04-09T08:04:08.878Z,10.55
2023-04-09T08:06:37.758Z,10.71
2023-04-09T08:09:05.725Z,10.87
2023-04-09T08:11:33.384Z,11.03
2023-04-09T08:14:03.497Z,11.19
2023-04-09T08:16:31.804Z,11.34
2023-04-09T08:18:59.531Z,11.49
2023-04-09T08:21:27.195Z,11.67
2023-04-09T08:23:59.430Z,11.85
2023-04-09T08:26:27.536Z,12.04
2023-04-09T08:28:55.508Z,12.17
2023-04-09T08:31:23.292Z,12.29
2023-04-09T08:33:51.147Z,12.44
2023-04-09T08:36:18.853Z,12.64
2023-04-09T08:38:47.718Z,12.85
2023-04-09T08:41:15.655Z,13.06
2023-04-09T08:43:57.115Z,13.21
2023-04-09T08:46:26.670Z,13.37
2023-04-09T08:48:54.658Z,13.57
2023-04-09T08:51:23.666Z,13.75
2023-04-09T08:53:53.550Z,13.88
2023-04-09T08:56:22.077Z,13.83
2023-04-09T08:58:49.764Z,13.85
2023-04-09T09:01:17.814Z,13.97
2023-04-09T09:03:45.626Z,14.18
2023-04-09T09:06:13.495Z,14.47
2023-04-09T09:08:41.177Z,14.82
2023-04-09T09:11:08.820Z,15.17
2023-04-09T09:13:37.202Z,15.51
2023-04-09T09:16:05.048Z,15.86
2023-04-09T09:18:32.683Z,15.85
2023-04-09T09:21:00.473Z,15.64
2023-04-09T09:23:28.567Z,15.67
2023-04-09T09:25:56.615Z,15.61
2023-04-09T09:28:24.208Z,15.36
2023-04-09T09:30:51.959Z,15.23
2023-04-09T09:33:19.694Z,15.11
2023-04-09T09:35:48.285Z,15.42
2023-04-09T09:38:16.764Z,15.89
2023-04-09T09:40:44.400Z,16.11
2023-04-09T09:43:14.148Z,16.09
2023-04-09T09:45:43.667Z,15.99
2023-04-09T09:48:11.546Z,15.89
2023-04-09T09:50:40.192Z,15.86
2023-04-09T09:53:07.957Z,16.04
2023-04-09T09:55:35.730Z,16.51
2023-04-09T09:58:04.018Z,17.33
2023-04-09T10:00:31.842Z,17.89
2023-04-09T10:03:00.190Z,18.43
2023-04-09T10:05:29.534Z,18.92
2023-04-09T10:07:57.293Z,19.01
2023-04-09T10:10:25.025Z,19.20
2023-04-09T10:12:52.909Z,19.22
2023-04-09T10:15:21.024Z,19.37
2023-04-09T10:17:48.751Z,19.41
2023-04-09T10:20:16.882Z,19.42
2023-04-09T10:22:44.643Z,19.01
2023-04-09T10:25:12.425Z,18.83
2023-04-09T10:27:40.472Z,18.98
2023-04-09T10:30:10.880Z,18.91
2023-04-09T10:32:38.584Z,18.76
2023-04-09T10:35:07.220Z,18.48
2023-04-09T10:37:35.125Z,18.75
2023-04-09T10:40:03.466Z,19.60
2023-04-09T10:42:33.127Z,19.48
2023-04-09T10:45:01.100Z,18.98
2023-04-09T10:47:29.117Z,18.49
2023-04-09T10:49:56.841Z,18.08
2023-04-09T10:52:24.731Z,17.76
2023-04-09T10:54:52.609Z,17.48
2023-04-09T10:57:20.900Z,17.27
2023-04-09T10:59:48.686Z,17.34
2023-04-09T11:02:16.411Z,17.59
2023-04-09T11:04:44.974Z,17.55
2023-04-09T11:07:13.409Z,17.66
2023-04-09T11:09:41.161Z,17.69
2023-04-09T11:12:08.845Z,17.71
2023-04-09T11:14:36.848Z,18.15
2023-04-09T11:17:04.964Z,18.22
2023-04-09T11:19:32.779Z,18.01
2023-04-09T11:22:00.707Z,18.13
2023-04-09T11:24:28.471Z,17.85
2023-04-09T11:26:56.970Z,17.83
2023-04-09T11:29:24.839Z,19.20
2023-04-09T11:31:52.791Z,20.93
2023-04-09T11:34:20.758Z,22.23
2023-04-09T11:36:48.528Z,23.36
2023-04-09T11:39:16.367Z,24.33
2023-04-09T11:41:44.515Z,24.94
2023-04-09T11:44:12.276Z,25.07
2023-04-09T11:46:40.146Z,24.76
2023-04-09T11:49:08.436Z,24.25
2023-04-09T11:51:36.301Z,23.92
2023-04-09T11:54:04.782Z,23.04
2023-04-09T11:56:32.903Z,21.92
2023-04-09T11:59:00.682Z,21.19
2023-04-09T12:01:28.477Z,20.81
2023-04-09T12:03:56.402Z,20.29
2023-04-09T12:06:25.327Z,19.72
2023-04-09T12:08:53.545Z,19.31
2023-04-09T12:11:21.902Z,19.08
2023-04-09T12:13:49.727Z,18.94
2023-04-09T12:16:17.564Z,19.36
2023-04-09T12:18:45.443Z,19.15
2023-04-09T12:21:13.367Z,18.79
2023-04-09T12:23:41.204Z,18.52
2023-04-09T12:26:09.019Z,18.29
2023-04-09T12:28:37.017Z,18.15
2023-04-09T12:31:05.236Z,18.33
2023-04-09T12:33:34.179Z,18.60
2023-04-09T12:36:02.024Z,18.59
2023-04-09T12:38:29.946Z,18.71
2023-04-09T12:40:57.651Z,18.36
2023-04-09T12:43:25.898Z,18.04
2023-04-09T12:45:54.146Z,17.81
2023-04-09T12:48:22.095Z,17.58
2023-04-09T12:50:50.085Z,17.68
2023-04-09T12:53:17.837Z,18.52
2023-04-09T12:55:46.519Z,19.36
2023-04-09T12:58:14.966Z,19.49
2023-04-09T13:00:42.724Z,19.19
2023-04-09T13:03:10.820Z,18.88
2023-04-09T13:05:38.759Z,18.54
2023-04-09T13:08:07.729Z,18.46
2023-04-09T13:10:35.912Z,18.37
2023-04-09T13:13:03.851Z,18.29
2023-04-09T13:15:31.770Z,18.52
2023-04-09T13:18:00.131Z,18.82
2023-04-09T13:20:28.532Z,18.97
2023-04-09T13:22:56.296Z,18.81
2023-04-09T13:25:24.088Z,18.79
2023-04-09T13:27:51.832Z,19.00
2023-04-09T13:30:19.485Z,18.90
2023-04-09T13:32:47.635Z,18.69
2023-04-09T13:35:15.836Z,18.61
2023-04-09T13:37:43.572Z,18.66
2023-04-09T13:40:11.754Z,18.98
2023-04-09T13:42:39.499Z,19.13
2023-04-09T13:45:07.631Z,18.93
2023-04-09T13:47:35.443Z,18.59
2023-04-09T13:50:03.411Z,18.28
2023-04-09T13:52:31.254Z,18.00
2023-04-09T13:54:59.129Z,17.78
2023-04-09T13:57:27.938Z,17.64
2023-04-09T13:59:55.852Z,17.55
2023-04-09T14:02:23.881Z,17.50
2023-04-09T14:04:52.743Z,17.52
2023-04-09T14:07:20.760Z,18.03
2023-04-09T14:09:48.535Z,18.63
2023-04-09T14:12:16.474Z,19.21
2023-04-09T14:14:44.252Z,19.73
2023-04-09T14:17:11.967Z,20.18
2023-04-09T14:19:39.891Z,20.62
2023-04-09T14:22:09.320Z,21.09
2023-04-09T14:24:40.277Z,21.06
2023-04-09T14:27:08.425Z,20.47
2023-04-09T14:29:36.067Z,19.80
2023-04-09T14:32:03.804Z,19.19
2023-04-09T14:34:31.880Z,19.23
2023-04-09T14:36:59.688Z,19.05
2023-04-09T14:39:27.587Z,19.61
2023-04-09T14:41:57.303Z,20.33
2023-04-09T14:44:26.497Z,21.21
2023-04-09T14:46:55.393Z,21.96
2023-04-09T14:49:23.185Z,22.24
2023-04-09T14:51:50.994Z,22.40
2023-04-09T14:54:18.902Z,22.31
2023-04-09T14:56:46.863Z,22.01
2023-04-09T14:59:15.034Z,21.41
2023-04-09T15:01:43.092Z,20.68
2023-04-09T15:04:11.005Z,19.94
2023-04-09T15:06:38.912Z,19.39
2023-04-09T15:09:07.199Z,19.20
2023-04-09T15:11:35.487Z,19.50
2023-04-09T15:14:03.326Z,20.28
2023-04-09T15:16:33.549Z,20.71
2023-04-09T15:19:02.920Z,20.69
2023-04-09T15:21:31.689Z,19.97
2023-04-09T15:23:59.783Z,19.30
2023-04-09T15:26:28.391Z,18.78
2023-04-09T15:28:56.107Z,18.26
2023-04-09T15:31:24.083Z,17.88
2023-04-09T15:33:52.062Z,17.62
2023-04-09T15:36:20.187Z,17.77
2023-04-09T15:38:48.411Z,17.72
2023-04-09T15:41:17.377Z,17.41
2023-04-09T15:43:45.264Z,17.16
2023-04-09T15:46:13.257Z,16.88
2023-04-09T15:48:42.394Z,16.66
2023-04-09T15:51:11.437Z,16.45
2023-04-09T15:53:39.245Z,16.27
2023-04-09T15:56:07.101Z,16.18
2023-04-09T15:58:36.309Z,16.25
2023-04-09T16:01:04.601Z,17.00
2023-04-09T16:03:37.353Z,18.20
2023-04-09T16:06:07.603Z,19.43
2023-04-09T16:08:35.526Z,20.43
2023-04-09T16:11:03.444Z,20.55
2023-04-09T16:13:31.481Z,20.10
2023-04-09T16:15:59.640Z,19.47
2023-04-09T16:18:27.461Z,18.82
2023-04-09T16:20:55.214Z,18.16
2023-04-09T16:23:24.162Z,17.66
2023-04-09T16:25:52.626Z,17.18
2023-04-09T16:28:21.796Z,16.85
2023-04-09T16:30:49.587Z,16.56
2023-04-09T16:33:17.510Z,16.23
2023-04-09T16:35:45.504Z,15.97
2023-04-09T16:38:13.842Z,15.74
2023-04-09T16:40:41.727Z,15.57
2023-04-09T16:43:09.539Z,15.42
2023-04-09T16:45:37.384Z,15.25
2023-04-09T16:48:06.582Z,15.09
2023-04-09T16:50:34.756Z,14.90
2023-04-09T16:53:04.603Z,14.75
2023-04-09T16:55:32.929Z,14.58
2023-04-09T16:58:00.755Z,14.43
2023-04-09T17:00:29.052Z,14.28
2023-04-09T17:02:58.534Z,14.17
2023-04-09T17:05:26.735Z,14.04
2023-04-09T17:07:54.703Z,13.94
2023-04-09T17:10:22.538Z,13.85
2023-04-09T17:12:50.891Z,13.76
2023-04-09T17:15:19.370Z,13.68
2023-04-09T17:17:51.526Z,13.58
2023-04-09T17:20:19.360Z,13.49
2023-04-09T17:22:47.435Z,13.40
2023-04-09T17:25:15.195Z,13.30
2023-04-09T17:27:45.764Z,13.21
2023-04-09T17:30:14.037Z,13.11
2023-04-09T17:32:43.902Z,13.03
2023-04-09T17:35:11.773Z,12.97
2023-04-09T17:37:39.750Z,12.90
2023-04-09T17:40:08.018Z,12.83
2023-04-09T17:42:35.894Z,12.75
2023-04-09T17:45:04.843Z,12.65
2023-04-09T17:47:32.863Z,12.58
2023-04-09T17:50:01.754Z,12.50
2023-04-09T17:52:30.190Z,12.42
2023-04-09T17:54:58.606Z,12.33
2023-04-09T17:57:26.444Z,12.25
2023-04-09T17:59:54.423Z,12.17
2023-04-09T18:02:22.574Z,12.07
2023-04-09T18:04:51.343Z,11.98
2023-04-09T18:07:19.740Z,11.92
2023-04-09T18:09:47.748Z,11.83
2023-04-09T18:12:16.054Z,11.75
2023-04-09T18:14:44.079Z,11.69
2023-04-09T18:17:14.567Z,11.62
2023-04-09T18:19:43.931Z,11.53
2023-04-09T18:22:11.754Z,11.41
2023-04-09T18:24:40.121Z,11.30
2023-04-09T18:27:08.017Z,11.19
2023-04-09T18:29:36.672Z,11.07
2023-04-09T18:32:04.840Z,10.96
2023-04-09T18:34:32.659Z,10.85
2023-04-09T18:37:00.533Z,10.75
2023-04-09T18:39:28.431Z,10.62
2023-04-09T18:41:57.620Z,10.51
2023-04-09T18:44:26.175Z,10.41
2023-04-09T18:46:54.479Z,10.31
2023-04-09T18:49:22.327Z,10.18
2023-04-09T18:51:50.192Z,10.07
2023-04-09T18:54:18.537Z,9.97
2023-04-09T18:56:46.662Z,9.90
2023-04-09T18:59:14.647Z,9.80
2023-04-09T19:01:42.658Z,9.69
2023-04-09T19:04:10.772Z,9.58
2023-04-09T19:06:39.074Z,9.47
2023-04-09T19:09:08.140Z,9.38
2023-04-09T19:11:35.889Z,9.30
2023-04-09T19:14:03.708Z,9.26
2023-04-09T19:16:31.919Z,9.22
2023-04-09T19:19:00.198Z,9.16
2023-04-09T19:21:29.129Z,9.09
2023-04-09T19:23:57.175Z,9.02
2023-04-09T19:26:25.245Z,8.95
2023-04-09T19:28:53.356Z,8.86
2023-04-09T19:31:21.884Z,8.75
2023-04-09T19:33:49.993Z,8.68
2023-04-09T19:36:17.764Z,8.60
2023-04-09T19:38:45.621Z,8.54
2023-04-09T19:41:13.537Z,8.50
2023-04-09T19:43:42.636Z,8.44
2023-04-09T19:46:10.569Z,8.40
2023-04-09T19:48:38.472Z,8.34
2023-04-09T19:51:07.155Z,8.28
2023-04-09T19:53:36.682Z,8.26
2023-04-09T19:56:04.899Z,8.21
2023-04-09T19:58:33.963Z,8.19
2023-04-09T20:01:02.557Z,8.14
2023-04-09T20:03:30.724Z,8.09
2023-04-09T20:05:58.794Z,8.07
2023-04-09T20:08:26.882Z,8.02
2023-04-09T20:10:54.894Z,8.00
2023-04-09T20:13:23.664Z,7.97
2023-04-09T20:15:51.922Z,7.92
2023-04-09T20:18:19.785Z,7.90
2023-04-09T20:20:48.122Z,7.84
2023-04-09T20:23:16.308Z,7.80
2023-04-09T20:25:44.075Z,7.75
2023-04-09T20:28:11.989Z,7.72
2023-04-09T20:30:39.936Z,7.68
2023-04-09T20:33:07.853Z,7.64
2023-04-09T20:35:37.754Z,7.60
2023-04-09T20:38:05.679Z,7.56
2023-04-09T20:40:33.510Z,7.51
2023-04-09T20:43:01.411Z,7.47
2023-04-09T20:45:29.821Z,7.46
2023-04-09T20:47:58.047Z,7.46
2023-04-09T20:50:26.133Z,7.44
2023-04-09T20:52:54.117Z,7.41
2023-04-09T20:55:23.311Z,7.43
2023-04-09T20:57:53.657Z,7.44
2023-04-09T21:00:24.861Z,7.41
2023-04-09T21:02:54.398Z,7.37
2023-04-09T21:05:24.355Z,7.32
2023-04-09T21:07:54.818Z,7.27
2023-04-09T21:10:23.525Z,7.24
2023-04-09T21:12:51.399Z,7.13
2023-04-09T21:15:19.437Z,7.02
2023-04-09T21:17:47.386Z,6.93
2023-04-09T21:20:17.669Z,6.86
2023-04-09T21:22:45.898Z,6.79
2023-04-09T21:25:15.353Z,6.72
2023-04-09T21:27:43.585Z,6.66
2023-04-09T21:30:11.544Z,6.59
2023-04-09T21:32:39.878Z,6.51
2023-04-09T21:35:07.961Z,6.44
2023-04-09T21:37:35.900Z,6.41
2023-04-09T21:40:04.286Z,6.40
2023-04-09T21:42:32.866Z,6.40
2023-04-09T21:45:02.361Z,6.39
2023-04-09T21:47:30.609Z,6.39
2023-04-09T21:49:58.840Z,6.41
2023-04-09T21:52:26.610Z,6.42
2023-04-09T21:54:54.418Z,6.44
2023-04-09T21:57:23.261Z,6.45
2023-04-09T21:59:51.502Z,6.46
2023-04-09T22:02:19.587Z,6.47
2023-04-09T22:04:47.513Z,6.47
2023-04-09T22:07:15.620Z,6.47
2023-04-09T22:09:43.817Z,6.45
2023-04-09T22:12:12.306Z,6.41
2023-04-09T22:14:41.774Z,6.36
2023-04-09T22:17:09.737Z,6.31
2023-04-09T22:19:37.585Z,6.28
2023-04-09T22:22:05.731Z,6.25
2023-04-09T22:24:35.137Z,6.20
2023-04-09T22:27:02.970Z,6.14
2023-04-09T22:29:30.768Z,6.09
2023-04-09T22:31:58.614Z,6.04
2023-04-09T22:34:26.683Z,5.99
2023-04-09T22:36:54.503Z,5.97
2023-04-09T22:39:22.906Z,5.94
2023-04-09T22:41:50.638Z,5.94
2023-04-09T22:44:18.434Z,5.95
2023-04-09T22:46:47.025Z,5.95
2023-04-09T22:49:14.947Z,5.97
2023-04-09T22:51:42.823Z,5.98
2023-04-09T22:54:12.178Z,5.96
2023-04-09T22:56:41.114Z,5.95
2023-04-09T22:59:11.330Z,5.92
2023-04-09T23:01:40.043Z,5.90
2023-04-09T23:04:08.002Z,5.88
2023-04-09T23:06:36.196Z,5.84
2023-04-09T23:09:04.412Z,5.81
2023-04-09T23:11:32.822Z,5.78
2023-04-09T23:14:00.678Z,5.77
2023-04-09T23:16:28.410Z,5.75
2023-04-09T23:18:56.485Z,5.75
2023-04-09T23:21:24.516Z,5.75
2023-04-09T23:23:52.882Z,5.77
2023-04-09T23:26:20.924Z,5.78
2023-04-09T23:28:48.718Z,5.77
2023-04-09T23:31:16.376Z,5.74
2023-04-09T23:33:44.109Z,5.71
2023-04-09T23:36:12.237Z,5.65
2023-04-09T23:38:41.157Z,5.63
2023-04-09T23:41:08.833Z,5.60
2023-04-09T23:43:36.511Z,5.52
2023-04-09T23:46:04.170Z,5.45
2023-04-09T23:48:32.184Z,5.36
2023-04-09T23:51:01.206Z,5.28
2023-04-09T23:53:28.826Z,5.23
2023-04-09T23:55:56.524Z,5.19
2023-04-09T23:58:24.241Z,5.14
